sensor_id;sensor_type;location;lat;lon;timestamp;P1;durP1;ratioP1;P2;durP2;ratioP2
13975;SDS011;7062;49.792;9.946;2024-01-06T00:01:31;5.53;;;4.40;;
13975;SDS011;7062;49.792;9.946;2024-01-06T00:03:56;8.97;;;5.20;;
13975;SDS011;7062;49.792;9.946;2024-01-06T00:06:22;6.67;;;5.17;;
13975;SDS011;7062;49.792;9.946;2024-01-06T00:08:47;7.40;;;5.10;;
13975;SDS011;7062;49.792;9.946;2024-01-06T00:11:19;7.17;;;4.63;;
13975;SDS011;7062;49.792;9.946;2024-01-06T00:13:45;7.40;;;4.77;;
13975;SDS011;7062;49.792;9.946;2024-01-06T00:16:11;8.50;;;5.20;;
13975;SDS011;7062;49.792;9.946;2024-01-06T00:18:37;7.47;;;5.97;;
13975;SDS011;7062;49.792;9.946;2024-01-06T00:21:02;9.37;;;6.53;;
13975;SDS011;7062;49.792;9.946;2024-01-06T00:23:28;11.73;;;6.87;;
13975;SDS011;7062;49.792;9.946;2024-01-06T00:25:54;9.77;;;7.27;;
13975;SDS011;7062;49.792;9.946;2024-01-06T00:28:19;11.10;;;6.70;;
13975;SDS011;7062;49.792;9.946;2024-01-06T00:30:45;10.20;;;7.27;;
13975;SDS011;7062;49.792;9.946;2024-01-06T00:33:11;12.07;;;7.70;;
13975;SDS011;7062;49.792;9.946;2024-01-06T00:35:37;9.23;;;7.23;;
13975;SDS011;7062;49.792;9.946;2024-01-06T00:38:03;9.13;;;6.03;;
13975;SDS011;7062;49.792;9.946;2024-01-06T00:40:28;9.30;;;6.20;;
13975;SDS011;7062;49.792;9.946;2024-01-06T00:42:54;8.13;;;5.87;;
13975;SDS011;7062;49.792;9.946;2024-01-06T00:45:20;11.30;;;6.97;;
13975;SDS011;7062;49.792;9.946;2024-01-06T00:47:46;7.10;;;5.63;;
13975;SDS011;7062;49.792;9.946;2024-01-06T00:50:11;8.90;;;6.10;;
13975;SDS011;7062;49.792;9.946;2024-01-06T00:52:37;7.37;;;5.57;;
13975;SDS011;7062;49.792;9.946;2024-01-06T00:55:03;8.57;;;6.80;;
13975;SDS011;7062;49.792;9.946;2024-01-06T00:57:29;10.03;;;6.03;;
13975;SDS011;7062;49.792;9.946;2024-01-06T00:59:55;7.00;;;5.43;;
13975;SDS011;7062;49.792;9.946;2024-01-06T01:02:21;9.80;;;6.50;;
13975;SDS011;7062;49.792;9.946;2024-01-06T01:04:46;8.97;;;5.73;;
13975;SDS011;7062;49.792;9.946;2024-01-06T01:07:12;7.67;;;6.27;;
13975;SDS011;7062;49.792;9.946;2024-01-06T01:09:38;11.43;;;6.33;;
13975;SDS011;7062;49.792;9.946;2024-01-06T01:12:04;15.30;;;6.77;;
13975;SDS011;7062;49.792;9.946;2024-01-06T01:14:29;9.47;;;5.80;;
13975;SDS011;7062;49.792;9.946;2024-01-06T01:16:55;10.97;;;6.80;;
13975;SDS011;7062;49.792;9.946;2024-01-06T01:19:21;10.53;;;6.37;;
13975;SDS011;7062;49.792;9.946;2024-01-06T01:21:46;12.17;;;6.03;;
13975;SDS011;7062;49.792;9.946;2024-01-06T01:24:12;8.87;;;5.83;;
13975;SDS011;7062;49.792;9.946;2024-01-06T01:26:38;8.73;;;5.60;;
13975;SDS011;7062;49.792;9.946;2024-01-06T01:29:03;7.70;;;5.43;;
13975;SDS011;7062;49.792;9.946;2024-01-06T01:31:29;7.10;;;5.60;;
13975;SDS011;7062;49.792;9.946;2024-01-06T01:33:55;10.37;;;6.33;;
13975;SDS011;7062;49.792;9.946;2024-01-06T01:36:20;10.50;;;6.07;;
13975;SDS011;7062;49.792;9.946;2024-01-06T01:38:46;13.33;;;8.33;;
13975;SDS011;7062;49.792;9.946;2024-01-06T01:41:12;9.33;;;7.17;;
13975;SDS011;7062;49.792;9.946;2024-01-06T01:43:38;8.87;;;6.77;;
13975;SDS011;7062;49.792;9.946;2024-01-06T01:46:03;8.57;;;6.17;;
13975;SDS011;7062;49.792;9.946;2024-01-06T01:48:29;8.90;;;6.03;;
13975;SDS011;7062;49.792;9.946;2024-01-06T01:50:58;10.40;;;6.90;;
13975;SDS011;7062;49.792;9.946;2024-01-06T01:53:24;8.53;;;6.10;;
13975;SDS011;7062;49.792;9.946;2024-01-06T01:55:51;7.47;;;5.77;;
13975;SDS011;7062;49.792;9.946;2024-01-06T01:58:17;9.07;;;6.23;;
13975;SDS011;7062;49.792;9.946;2024-01-06T02:00:43;10.50;;;5.87;;
13975;SDS011;7062;49.792;9.946;2024-01-06T02:03:09;9.87;;;6.30;;
13975;SDS011;7062;49.792;9.946;2024-01-06T02:05:37;11.97;;;6.97;;
13975;SDS011;7062;49.792;9.946;2024-01-06T02:08:03;9.40;;;7.93;;
13975;SDS011;7062;49.792;9.946;2024-01-06T02:10:30;9.97;;;6.67;;
13975;SDS011;7062;49.792;9.946;2024-01-06T02:12:56;8.97;;;7.20;;
13975;SDS011;7062;49.792;9.946;2024-01-06T02:15:21;11.27;;;6.90;;
13975;SDS011;7062;49.792;9.946;2024-01-06T02:17:47;11.97;;;6.97;;
13975;SDS011;7062;49.792;9.946;2024-01-06T02:20:13;10.07;;;5.87;;
13975;SDS011;7062;49.792;9.946;2024-01-06T02:22:41;7.17;;;5.20;;
13975;SDS011;7062;49.792;9.946;2024-01-06T02:25:07;6.47;;;4.20;;
13975;SDS011;7062;49.792;9.946;2024-01-06T02:27:38;11.17;;;5.57;;
13975;SDS011;7062;49.792;9.946;2024-01-06T02:30:05;7.60;;;5.37;;
13975;SDS011;7062;49.792;9.946;2024-01-06T02:32:31;9.07;;;6.47;;
13975;SDS011;7062;49.792;9.946;2024-01-06T02:34:57;8.47;;;5.80;;
13975;SDS011;7062;49.792;9.946;2024-01-06T02:37:22;7.67;;;6.20;;
13975;SDS011;7062;49.792;9.946;2024-01-06T02:39:48;9.70;;;5.90;;
13975;SDS011;7062;49.792;9.946;2024-01-06T02:42:13;8.53;;;6.20;;
13975;SDS011;7062;49.792;9.946;2024-01-06T02:44:39;8.13;;;5.17;;
13975;SDS011;7062;49.792;9.946;2024-01-06T02:47:05;8.03;;;5.30;;
13975;SDS011;7062;49.792;9.946;2024-01-06T02:49:30;8.77;;;5.83;;
13975;SDS011;7062;49.792;9.946;2024-01-06T02:51:56;9.07;;;5.97;;
13975;SDS011;7062;49.792;9.946;2024-01-06T02:54:22;8.47;;;5.97;;
13975;SDS011;7062;49.792;9.946;2024-01-06T02:56:47;8.77;;;6.20;;
13975;SDS011;7062;49.792;9.946;2024-01-06T02:59:13;8.23;;;6.23;;
13975;SDS011;7062;49.792;9.946;2024-01-06T03:01:39;7.43;;;5.67;;
13975;SDS011;7062;49.792;9.946;2024-01-06T03:04:04;7.80;;;5.07;;
13975;SDS011;7062;49.792;9.946;2024-01-06T03:06:30;10.93;;;6.93;;
13975;SDS011;7062;49.792;9.946;2024-01-06T03:08:55;7.93;;;5.43;;
13975;SDS011;7062;49.792;9.946;2024-01-06T03:11:22;7.57;;;5.53;;
13975;SDS011;7062;49.792;9.946;2024-01-06T03:13:47;6.83;;;4.73;;
13975;SDS011;7062;49.792;9.946;2024-01-06T03:16:13;5.57;;;4.63;;
13975;SDS011;7062;49.792;9.946;2024-01-06T03:18:39;8.67;;;4.40;;
13975;SDS011;7062;49.792;9.946;2024-01-06T03:21:04;5.93;;;4.60;;
13975;SDS011;7062;49.792;9.946;2024-01-06T03:23:30;8.00;;;4.53;;
13975;SDS011;7062;49.792;9.946;2024-01-06T03:25:56;12.40;;;6.67;;
13975;SDS011;7062;49.792;9.946;2024-01-06T03:28:21;8.97;;;5.33;;
13975;SDS011;7062;49.792;9.946;2024-01-06T03:30:47;10.63;;;4.50;;
13975;SDS011;7062;49.792;9.946;2024-01-06T03:33:13;6.57;;;3.80;;
13975;SDS011;7062;49.792;9.946;2024-01-06T03:35:38;6.80;;;4.23;;
13975;SDS011;7062;49.792;9.946;2024-01-06T03:38:04;4.10;;;2.90;;
13975;SDS011;7062;49.792;9.946;2024-01-06T03:40:30;7.60;;;5.83;;
13975;SDS011;7062;49.792;9.946;2024-01-06T03:42:55;8.13;;;5.90;;
13975;SDS011;7062;49.792;9.946;2024-01-06T03:45:21;7.63;;;4.23;;
13975;SDS011;7062;49.792;9.946;2024-01-06T03:47:47;8.60;;;4.57;;
13975;SDS011;7062;49.792;9.946;2024-01-06T03:50:13;5.57;;;4.00;;
13975;SDS011;7062;49.792;9.946;2024-01-06T03:52:38;6.53;;;3.83;;
13975;SDS011;7062;49.792;9.946;2024-01-06T03:55:05;6.37;;;3.23;;
13975;SDS011;7062;49.792;9.946;2024-01-06T03:57:31;5.00;;;3.37;;
13975;SDS011;7062;49.792;9.946;2024-01-06T03:59:57;6.83;;;3.70;;
13975;SDS011;7062;49.792;9.946;2024-01-06T04:02:22;6.53;;;3.20;;
13975;SDS011;7062;49.792;9.946;2024-01-06T04:04:48;5.00;;;3.40;;
13975;SDS011;7062;49.792;9.946;2024-01-06T04:07:14;6.07;;;3.60;;
13975;SDS011;7062;49.792;9.946;2024-01-06T04:09:41;7.70;;;3.63;;
13975;SDS011;7062;49.792;9.946;2024-01-06T04:12:08;5.00;;;2.77;;
13975;SDS011;7062;49.792;9.946;2024-01-06T04:14:34;4.57;;;2.83;;
13975;SDS011;7062;49.792;9.946;2024-01-06T04:16:59;4.83;;;3.03;;
13975;SDS011;7062;49.792;9.946;2024-01-06T04:19:25;5.93;;;3.40;;
13975;SDS011;7062;49.792;9.946;2024-01-06T04:21:51;6.70;;;4.23;;
13975;SDS011;7062;49.792;9.946;2024-01-06T04:24:16;6.70;;;4.47;;
13975;SDS011;7062;49.792;9.946;2024-01-06T04:26:42;7.17;;;4.20;;
13975;SDS011;7062;49.792;9.946;2024-01-06T04:29:10;5.37;;;3.50;;
13975;SDS011;7062;49.792;9.946;2024-01-06T04:31:36;4.47;;;2.53;;
13975;SDS011;7062;49.792;9.946;2024-01-06T04:34:02;5.90;;;3.50;;
13975;SDS011;7062;49.792;9.946;2024-01-06T04:36:28;7.40;;;3.20;;
13975;SDS011;7062;49.792;9.946;2024-01-06T04:38:54;4.50;;;2.40;;
13975;SDS011;7062;49.792;9.946;2024-01-06T04:41:20;7.37;;;4.83;;
13975;SDS011;7062;49.792;9.946;2024-01-06T04:43:46;4.60;;;3.47;;
13975;SDS011;7062;49.792;9.946;2024-01-06T04:46:12;8.07;;;4.37;;
13975;SDS011;7062;49.792;9.946;2024-01-06T04:48:40;5.97;;;4.13;;
13975;SDS011;7062;49.792;9.946;2024-01-06T04:51:06;8.17;;;4.87;;
13975;SDS011;7062;49.792;9.946;2024-01-06T04:53:35;7.47;;;4.43;;
13975;SDS011;7062;49.792;9.946;2024-01-06T04:56:01;7.63;;;5.40;;
13975;SDS011;7062;49.792;9.946;2024-01-06T04:58:27;6.37;;;4.20;;
13975;SDS011;7062;49.792;9.946;2024-01-06T05:00:52;10.20;;;4.90;;
13975;SDS011;7062;49.792;9.946;2024-01-06T05:03:18;6.27;;;4.20;;
13975;SDS011;7062;49.792;9.946;2024-01-06T05:05:44;6.30;;;4.43;;
13975;SDS011;7062;49.792;9.946;2024-01-06T05:08:09;7.40;;;4.97;;
13975;SDS011;7062;49.792;9.946;2024-01-06T05:10:35;5.53;;;3.97;;
13975;SDS011;7062;49.792;9.946;2024-01-06T05:13:01;5.83;;;3.80;;
13975;SDS011;7062;49.792;9.946;2024-01-06T05:15:26;5.07;;;3.03;;
13975;SDS011;7062;49.792;9.946;2024-01-06T05:17:52;5.53;;;3.30;;
13975;SDS011;7062;49.792;9.946;2024-01-06T05:20:17;6.03;;;3.70;;
13975;SDS011;7062;49.792;9.946;2024-01-06T05:22:43;4.50;;;3.20;;
13975;SDS011;7062;49.792;9.946;2024-01-06T05:25:08;6.33;;;3.87;;
13975;SDS011;7062;49.792;9.946;2024-01-06T05:27:34;5.20;;;3.57;;
13975;SDS011;7062;49.792;9.946;2024-01-06T05:30:00;5.43;;;4.03;;
13975;SDS011;7062;49.792;9.946;2024-01-06T05:32:26;8.80;;;4.40;;
13975;SDS011;7062;49.792;9.946;2024-01-06T05:34:52;5.83;;;3.73;;
13975;SDS011;7062;49.792;9.946;2024-01-06T05:37:17;8.20;;;2.97;;
13975;SDS011;7062;49.792;9.946;2024-01-06T05:39:43;6.23;;;2.93;;
13975;SDS011;7062;49.792;9.946;2024-01-06T05:42:09;10.20;;;2.90;;
13975;SDS011;7062;49.792;9.946;2024-01-06T05:44:38;5.13;;;2.00;;
13975;SDS011;7062;49.792;9.946;2024-01-06T05:47:04;5.03;;;1.83;;
13975;SDS011;7062;49.792;9.946;2024-01-06T05:49:29;5.03;;;2.00;;
13975;SDS011;7062;49.792;9.946;2024-01-06T05:51:55;4.87;;;2.37;;
13975;SDS011;7062;49.792;9.946;2024-01-06T05:54:21;5.20;;;2.90;;
13975;SDS011;7062;49.792;9.946;2024-01-06T05:56:46;4.47;;;2.70;;
13975;SDS011;7062;49.792;9.946;2024-01-06T05:59:12;5.43;;;3.17;;
13975;SDS011;7062;49.792;9.946;2024-01-06T06:01:38;5.13;;;3.00;;
13975;SDS011;7062;49.792;9.946;2024-01-06T06:04:03;3.47;;;2.73;;
13975;SDS011;7062;49.792;9.946;2024-01-06T06:06:29;5.00;;;3.17;;
13975;SDS011;7062;49.792;9.946;2024-01-06T06:08:55;5.60;;;3.03;;
13975;SDS011;7062;49.792;9.946;2024-01-06T06:11:21;5.77;;;3.07;;
13975;SDS011;7062;49.792;9.946;2024-01-06T06:13:46;5.17;;;2.43;;
13975;SDS011;7062;49.792;9.946;2024-01-06T06:16:12;6.43;;;2.70;;
13975;SDS011;7062;49.792;9.946;2024-01-06T06:18:38;5.03;;;3.10;;
13975;SDS011;7062;49.792;9.946;2024-01-06T06:21:05;4.30;;;2.50;;
13975;SDS011;7062;49.792;9.946;2024-01-06T06:23:32;3.97;;;2.27;;
13975;SDS011;7062;49.792;9.946;2024-01-06T06:25:58;3.70;;;2.17;;
13975;SDS011;7062;49.792;9.946;2024-01-06T06:28:26;4.33;;;2.57;;
13975;SDS011;7062;49.792;9.946;2024-01-06T06:30:52;5.90;;;3.60;;
13975;SDS011;7062;49.792;9.946;2024-01-06T06:33:19;4.27;;;2.67;;
13975;SDS011;7062;49.792;9.946;2024-01-06T06:35:44;8.37;;;2.50;;
13975;SDS011;7062;49.792;9.946;2024-01-06T06:38:10;6.50;;;3.73;;
13975;SDS011;7062;49.792;9.946;2024-01-06T06:40:36;7.73;;;3.20;;
13975;SDS011;7062;49.792;9.946;2024-01-06T06:43:02;6.23;;;2.87;;
13975;SDS011;7062;49.792;9.946;2024-01-06T06:45:27;4.50;;;3.17;;
13975;SDS011;7062;49.792;9.946;2024-01-06T06:47:53;5.97;;;2.73;;
13975;SDS011;7062;49.792;9.946;2024-01-06T06:50:19;4.30;;;2.43;;
13975;SDS011;7062;49.792;9.946;2024-01-06T06:52:45;3.27;;;2.17;;
13975;SDS011;7062;49.792;9.946;2024-01-06T06:55:11;4.23;;;2.37;;
13975;SDS011;7062;49.792;9.946;2024-01-06T06:57:37;6.83;;;3.93;;
13975;SDS011;7062;49.792;9.946;2024-01-06T07:00:03;6.07;;;3.43;;
13975;SDS011;7062;49.792;9.946;2024-01-06T07:02:32;6.80;;;4.00;;
13975;SDS011;7062;49.792;9.946;2024-01-06T07:04:58;6.87;;;3.77;;
13975;SDS011;7062;49.792;9.946;2024-01-06T07:07:24;4.70;;;2.93;;
13975;SDS011;7062;49.792;9.946;2024-01-06T07:09:49;4.23;;;2.87;;
13975;SDS011;7062;49.792;9.946;2024-01-06T07:12:15;3.50;;;2.73;;
13975;SDS011;7062;49.792;9.946;2024-01-06T07:14:40;4.73;;;2.77;;
13975;SDS011;7062;49.792;9.946;2024-01-06T07:17:06;4.33;;;2.80;;
13975;SDS011;7062;49.792;9.946;2024-01-06T07:19:34;3.10;;;2.60;;
13975;SDS011;7062;49.792;9.946;2024-01-06T07:22:00;5.30;;;2.80;;
13975;SDS011;7062;49.792;9.946;2024-01-06T07:24:26;5.70;;;3.17;;
13975;SDS011;7062;49.792;9.946;2024-01-06T07:26:52;4.27;;;2.63;;
13975;SDS011;7062;49.792;9.946;2024-01-06T07:29:17;4.90;;;3.47;;
13975;SDS011;7062;49.792;9.946;2024-01-06T07:31:44;9.97;;;4.07;;
13975;SDS011;7062;49.792;9.946;2024-01-06T07:34:09;6.37;;;3.23;;
13975;SDS011;7062;49.792;9.946;2024-01-06T07:36:35;11.63;;;4.30;;
13975;SDS011;7062;49.792;9.946;2024-01-06T07:39:01;5.27;;;3.17;;
13975;SDS011;7062;49.792;9.946;2024-01-06T07:41:28;6.37;;;3.23;;
13975;SDS011;7062;49.792;9.946;2024-01-06T07:43:55;6.90;;;3.40;;
13975;SDS011;7062;49.792;9.946;2024-01-06T07:46:21;4.93;;;3.10;;
13975;SDS011;7062;49.792;9.946;2024-01-06T07:48:47;3.53;;;2.50;;
13975;SDS011;7062;49.792;9.946;2024-01-06T07:51:12;4.57;;;2.50;;
13975;SDS011;7062;49.792;9.946;2024-01-06T07:53:38;7.15;;;2.92;;
13975;SDS011;7062;49.792;9.946;2024-01-06T07:56:04;3.60;;;2.53;;
13975;SDS011;7062;49.792;9.946;2024-01-06T07:58:30;4.57;;;2.70;;
13975;SDS011;7062;49.792;9.946;2024-01-06T08:00:56;3.80;;;2.50;;
13975;SDS011;7062;49.792;9.946;2024-01-06T08:03:22;3.57;;;2.90;;
13975;SDS011;7062;49.792;9.946;2024-01-06T08:05:48;4.10;;;2.33;;
13975;SDS011;7062;49.792;9.946;2024-01-06T08:08:14;5.23;;;2.77;;
13975;SDS011;7062;49.792;9.946;2024-01-06T08:10:41;6.75;;;3.05;;
13975;SDS011;7062;49.792;9.946;2024-01-06T08:13:07;5.57;;;3.50;;
13975;SDS011;7062;49.792;9.946;2024-01-06T08:15:33;6.40;;;3.20;;
13975;SDS011;7062;49.792;9.946;2024-01-06T08:17:59;7.63;;;2.80;;
13975;SDS011;7062;49.792;9.946;2024-01-06T08:20:25;6.10;;;3.27;;
13975;SDS011;7062;49.792;9.946;2024-01-06T08:22:50;7.57;;;3.43;;
13975;SDS011;7062;49.792;9.946;2024-01-06T08:25:16;5.60;;;2.93;;
13975;SDS011;7062;49.792;9.946;2024-01-06T08:27:43;4.70;;;3.50;;
13975;SDS011;7062;49.792;9.946;2024-01-06T08:30:09;6.57;;;3.67;;
13975;SDS011;7062;49.792;9.946;2024-01-06T08:32:34;6.20;;;3.60;;
13975;SDS011;7062;49.792;9.946;2024-01-06T08:35:00;5.03;;;2.50;;
13975;SDS011;7062;49.792;9.946;2024-01-06T08:37:26;4.17;;;3.27;;
13975;SDS011;7062;49.792;9.946;2024-01-06T08:39:51;7.83;;;3.77;;
13975;SDS011;7062;49.792;9.946;2024-01-06T08:42:17;5.37;;;3.50;;
13975;SDS011;7062;49.792;9.946;2024-01-06T08:44:43;5.87;;;3.23;;
13975;SDS011;7062;49.792;9.946;2024-01-06T08:47:09;8.40;;;3.67;;
13975;SDS011;7062;49.792;9.946;2024-01-06T08:49:35;5.70;;;3.50;;
13975;SDS011;7062;49.792;9.946;2024-01-06T08:52:01;4.73;;;3.90;;
13975;SDS011;7062;49.792;9.946;2024-01-06T08:54:27;9.27;;;4.40;;
13975;SDS011;7062;49.792;9.946;2024-01-06T08:56:52;6.10;;;3.53;;
13975;SDS011;7062;49.792;9.946;2024-01-06T08:59:18;4.10;;;3.40;;
13975;SDS011;7062;49.792;9.946;2024-01-06T09:01:45;6.87;;;4.43;;
13975;SDS011;7062;49.792;9.946;2024-01-06T09:04:11;6.87;;;3.67;;
13975;SDS011;7062;49.792;9.946;2024-01-06T09:06:37;7.00;;;3.03;;
13975;SDS011;7062;49.792;9.946;2024-01-06T09:09:03;6.53;;;3.70;;
13975;SDS011;7062;49.792;9.946;2024-01-06T09:11:30;7.33;;;3.93;;
13975;SDS011;7062;49.792;9.946;2024-01-06T09:13:56;5.70;;;3.63;;
13975;SDS011;7062;49.792;9.946;2024-01-06T09:16:21;7.83;;;3.90;;
13975;SDS011;7062;49.792;9.946;2024-01-06T09:18:47;6.63;;;3.30;;
13975;SDS011;7062;49.792;9.946;2024-01-06T09:21:14;3.70;;;3.17;;
13975;SDS011;7062;49.792;9.946;2024-01-06T09:23:40;6.33;;;4.23;;
13975;SDS011;7062;49.792;9.946;2024-01-06T09:26:06;6.00;;;4.03;;
13975;SDS011;7062;49.792;9.946;2024-01-06T09:28:32;4.30;;;3.43;;
13975;SDS011;7062;49.792;9.946;2024-01-06T09:30:57;5.97;;;2.60;;
13975;SDS011;7062;49.792;9.946;2024-01-06T09:33:23;7.97;;;4.10;;
13975;SDS011;7062;49.792;9.946;2024-01-06T09:35:48;8.07;;;3.70;;
13975;SDS011;7062;49.792;9.946;2024-01-06T09:38:15;7.30;;;3.53;;
13975;SDS011;7062;49.792;9.946;2024-01-06T09:40:43;8.90;;;3.93;;
13975;SDS011;7062;49.792;9.946;2024-01-06T09:43:09;8.57;;;3.50;;
13975;SDS011;7062;49.792;9.946;2024-01-06T09:45:36;6.50;;;4.07;;
13975;SDS011;7062;49.792;9.946;2024-01-06T09:48:12;9.27;;;3.63;;
13975;SDS011;7062;49.792;9.946;2024-01-06T09:50:40;5.33;;;3.87;;
13975;SDS011;7062;49.792;9.946;2024-01-06T09:53:08;8.23;;;4.17;;
13975;SDS011;7062;49.792;9.946;2024-01-06T09:55:36;11.80;;;7.23;;
13975;SDS011;7062;49.792;9.946;2024-01-06T09:58:02;5.90;;;4.10;;
13975;SDS011;7062;49.792;9.946;2024-01-06T10:00:28;6.53;;;4.20;;
13975;SDS011;7062;49.792;9.946;2024-01-06T10:02:54;6.93;;;4.37;;
13975;SDS011;7062;49.792;9.946;2024-01-06T10:05:20;4.70;;;3.90;;
13975;SDS011;7062;49.792;9.946;2024-01-06T10:07:46;5.53;;;3.93;;
13975;SDS011;7062;49.792;9.946;2024-01-06T10:10:12;6.80;;;4.03;;
13975;SDS011;7062;49.792;9.946;2024-01-06T10:12:38;5.27;;;3.80;;
13975;SDS011;7062;49.792;9.946;2024-01-06T10:15:06;6.80;;;3.13;;
13975;SDS011;7062;49.792;9.946;2024-01-06T10:17:36;9.27;;;6.43;;
13975;SDS011;7062;49.792;9.946;2024-01-06T10:20:05;5.97;;;3.93;;
13975;SDS011;7062;49.792;9.946;2024-01-06T10:22:36;5.37;;;3.90;;
13975;SDS011;7062;49.792;9.946;2024-01-06T10:25:02;5.03;;;3.73;;
13975;SDS011;7062;49.792;9.946;2024-01-06T10:27:30;8.40;;;3.80;;
13975;SDS011;7062;49.792;9.946;2024-01-06T10:29:58;5.97;;;3.70;;
13975;SDS011;7062;49.792;9.946;2024-01-06T10:32:23;6.67;;;4.03;;
13975;SDS011;7062;49.792;9.946;2024-01-06T10:34:53;7.30;;;4.37;;
13975;SDS011;7062;49.792;9.946;2024-01-06T10:37:20;4.63;;;3.67;;
13975;SDS011;7062;49.792;9.946;2024-01-06T10:39:46;7.67;;;4.33;;
13975;SDS011;7062;49.792;9.946;2024-01-06T10:42:11;5.93;;;3.67;;
13975;SDS011;7062;49.792;9.946;2024-01-06T10:44:39;6.03;;;5.03;;
13975;SDS011;7062;49.792;9.946;2024-01-06T10:47:07;6.20;;;4.03;;
13975;SDS011;7062;49.792;9.946;2024-01-06T10:49:34;7.00;;;3.93;;
13975;SDS011;7062;49.792;9.946;2024-01-06T10:52:00;6.77;;;4.30;;
13975;SDS011;7062;49.792;9.946;2024-01-06T10:54:27;5.20;;;4.03;;
13975;SDS011;7062;49.792;9.946;2024-01-06T10:56:53;4.97;;;3.70;;
13975;SDS011;7062;49.792;9.946;2024-01-06T10:59:22;5.50;;;3.80;;
13975;SDS011;7062;49.792;9.946;2024-01-06T11:01:51;7.67;;;4.83;;
13975;SDS011;7062;49.792;9.946;2024-01-06T11:04:18;4.70;;;3.63;;
13975;SDS011;7062;49.792;9.946;2024-01-06T11:06:45;7.73;;;3.73;;
13975;SDS011;7062;49.792;9.946;2024-01-06T11:09:22;5.53;;;4.20;;
13975;SDS011;7062;49.792;9.946;2024-01-06T11:11:52;4.70;;;3.80;;
13975;SDS011;7062;49.792;9.946;2024-01-06T11:16:46;7.00;;;5.10;;
13975;SDS011;7062;49.792;9.946;2024-01-06T11:24:47;5.97;;;4.30;;
13975;SDS011;7062;49.792;9.946;2024-01-06T11:27:17;6.83;;;4.30;;
13975;SDS011;7062;49.792;9.946;2024-01-06T11:29:45;4.77;;;4.27;;
13975;SDS011;7062;49.792;9.946;2024-01-06T11:34:50;5.90;;;3.67;;
13975;SDS011;7062;49.792;9.946;2024-01-06T11:37:24;6.17;;;3.10;;
13975;SDS011;7062;49.792;9.946;2024-01-06T11:40:01;6.10;;;3.60;;
13975;SDS011;7062;49.792;9.946;2024-01-06T11:42:33;9.00;;;4.60;;
13975;SDS011;7062;49.792;9.946;2024-01-06T11:45:04;5.07;;;4.57;;
13975;SDS011;7062;49.792;9.946;2024-01-06T11:47:31;8.50;;;4.17;;
13975;SDS011;7062;49.792;9.946;2024-01-06T11:49:58;7.43;;;3.90;;
13975;SDS011;7062;49.792;9.946;2024-01-06T11:52:25;5.63;;;3.53;;
13975;SDS011;7062;49.792;9.946;2024-01-06T11:54:52;5.43;;;3.97;;
13975;SDS011;7062;49.792;9.946;2024-01-06T11:57:20;10.30;;;9.33;;
13975;SDS011;7062;49.792;9.946;2024-01-06T11:59:47;6.43;;;3.80;;
13975;SDS011;7062;49.792;9.946;2024-01-06T12:02:16;4.97;;;3.33;;
13975;SDS011;7062;49.792;9.946;2024-01-06T12:04:45;4.50;;;3.20;;
13975;SDS011;7062;49.792;9.946;2024-01-06T12:07:19;4.90;;;3.27;;
13975;SDS011;7062;49.792;9.946;2024-01-06T12:09:47;5.43;;;3.03;;
13975;SDS011;7062;49.792;9.946;2024-01-06T12:12:16;3.10;;;2.70;;
13975;SDS011;7062;49.792;9.946;2024-01-06T12:14:43;4.23;;;2.47;;
13975;SDS011;7062;49.792;9.946;2024-01-06T12:17:10;4.47;;;3.07;;
13975;SDS011;7062;49.792;9.946;2024-01-06T12:19:38;5.03;;;3.20;;
13975;SDS011;7062;49.792;9.946;2024-01-06T12:22:06;7.67;;;3.33;;
13975;SDS011;7062;49.792;9.946;2024-01-06T12:24:34;5.60;;;2.80;;
13975;SDS011;7062;49.792;9.946;2024-01-06T12:27:01;5.83;;;2.90;;
13975;SDS011;7062;49.792;9.946;2024-01-06T12:29:27;5.23;;;3.17;;
13975;SDS011;7062;49.792;9.946;2024-01-06T12:31:54;3.70;;;3.03;;
13975;SDS011;7062;49.792;9.946;2024-01-06T12:34:20;3.47;;;2.40;;
13975;SDS011;7062;49.792;9.946;2024-01-06T12:36:47;3.93;;;2.53;;
13975;SDS011;7062;49.792;9.946;2024-01-06T12:39:13;4.40;;;2.67;;
13975;SDS011;7062;49.792;9.946;2024-01-06T12:41:42;4.20;;;2.50;;
13975;SDS011;7062;49.792;9.946;2024-01-06T12:44:08;6.07;;;3.63;;
13975;SDS011;7062;49.792;9.946;2024-01-06T12:46:35;5.93;;;2.77;;
13975;SDS011;7062;49.792;9.946;2024-01-06T12:49:01;3.80;;;2.30;;
13975;SDS011;7062;49.792;9.946;2024-01-06T12:51:27;3.50;;;2.70;;
13975;SDS011;7062;49.792;9.946;2024-01-06T12:53:53;4.30;;;2.40;;
13975;SDS011;7062;49.792;9.946;2024-01-06T12:56:18;5.80;;;2.20;;
13975;SDS011;7062;49.792;9.946;2024-01-06T12:58:44;4.27;;;2.50;;
13975;SDS011;7062;49.792;9.946;2024-01-06T13:01:10;3.97;;;2.17;;
13975;SDS011;7062;49.792;9.946;2024-01-06T13:03:36;3.77;;;2.27;;
13975;SDS011;7062;49.792;9.946;2024-01-06T13:06:01;3.90;;;2.60;;
13975;SDS011;7062;49.792;9.946;2024-01-06T13:08:27;4.87;;;2.73;;
13975;SDS011;7062;49.792;9.946;2024-01-06T13:10:56;7.70;;;3.20;;
13975;SDS011;7062;49.792;9.946;2024-01-06T13:13:22;6.87;;;3.10;;
13975;SDS011;7062;49.792;9.946;2024-01-06T13:15:47;7.13;;;3.43;;
13975;SDS011;7062;49.792;9.946;2024-01-06T13:18:13;6.63;;;2.97;;
13975;SDS011;7062;49.792;9.946;2024-01-06T13:20:42;3.57;;;2.90;;
13975;SDS011;7062;49.792;9.946;2024-01-06T13:23:08;4.60;;;2.83;;
13975;SDS011;7062;49.792;9.946;2024-01-06T13:25:34;5.10;;;2.60;;
13975;SDS011;7062;49.792;9.946;2024-01-06T13:28:00;4.10;;;3.03;;
13975;SDS011;7062;49.792;9.946;2024-01-06T13:30:26;4.43;;;3.00;;
13975;SDS011;7062;49.792;9.946;2024-01-06T13:32:52;3.47;;;2.20;;
13975;SDS011;7062;49.792;9.946;2024-01-06T13:35:22;5.63;;;3.20;;
13975;SDS011;7062;49.792;9.946;2024-01-06T13:37:50;4.30;;;2.40;;
13975;SDS011;7062;49.792;9.946;2024-01-06T13:40:16;4.73;;;2.20;;
13975;SDS011;7062;49.792;9.946;2024-01-06T13:42:46;7.30;;;3.00;;
13975;SDS011;7062;49.792;9.946;2024-01-06T13:45:17;5.30;;;2.20;;
13975;SDS011;7062;49.792;9.946;2024-01-06T13:47:44;6.53;;;3.00;;
13975;SDS011;7062;49.792;9.946;2024-01-06T13:50:13;5.47;;;3.23;;
13975;SDS011;7062;49.792;9.946;2024-01-06T13:52:41;4.80;;;2.67;;
13975;SDS011;7062;49.792;9.946;2024-01-06T13:55:06;5.03;;;2.50;;
13975;SDS011;7062;49.792;9.946;2024-01-06T13:57:33;3.77;;;2.40;;
13975;SDS011;7062;49.792;9.946;2024-01-06T14:00:00;5.50;;;2.70;;
13975;SDS011;7062;49.792;9.946;2024-01-06T14:02:26;5.07;;;2.70;;
13975;SDS011;7062;49.792;9.946;2024-01-06T14:04:52;3.47;;;2.40;;
13975;SDS011;7062;49.792;9.946;2024-01-06T14:07:18;3.57;;;1.90;;
13975;SDS011;7062;49.792;9.946;2024-01-06T14:09:47;4.63;;;2.30;;
13975;SDS011;7062;49.792;9.946;2024-01-06T14:12:13;5.20;;;2.43;;
13975;SDS011;7062;49.792;9.946;2024-01-06T14:14:39;5.50;;;4.23;;
13975;SDS011;7062;49.792;9.946;2024-01-06T14:17:08;7.20;;;2.97;;
13975;SDS011;7062;49.792;9.946;2024-01-06T14:19:34;3.50;;;1.93;;
13975;SDS011;7062;49.792;9.946;2024-01-06T14:22:00;3.13;;;1.80;;
13975;SDS011;7062;49.792;9.946;2024-01-06T14:24:25;2.73;;;1.73;;
13975;SDS011;7062;49.792;9.946;2024-01-06T14:26:52;7.77;;;2.50;;
13975;SDS011;7062;49.792;9.946;2024-01-06T14:29:18;3.33;;;2.00;;
13975;SDS011;7062;49.792;9.946;2024-01-06T14:31:44;4.70;;;1.80;;
13975;SDS011;7062;49.792;9.946;2024-01-06T14:34:10;4.87;;;2.40;;
13975;SDS011;7062;49.792;9.946;2024-01-06T14:36:36;3.33;;;2.17;;
13975;SDS011;7062;49.792;9.946;2024-01-06T14:39:02;6.30;;;2.77;;
13975;SDS011;7062;49.792;9.946;2024-01-06T14:41:29;3.60;;;2.30;;
13975;SDS011;7062;49.792;9.946;2024-01-06T14:43:54;4.17;;;2.60;;
13975;SDS011;7062;49.792;9.946;2024-01-06T14:46:20;4.77;;;2.00;;
13975;SDS011;7062;49.792;9.946;2024-01-06T14:48:46;3.80;;;2.03;;
13975;SDS011;7062;49.792;9.946;2024-01-06T14:51:11;3.43;;;2.43;;
13975;SDS011;7062;49.792;9.946;2024-01-06T14:53:38;3.70;;;2.60;;
13975;SDS011;7062;49.792;9.946;2024-01-06T14:56:03;5.73;;;3.17;;
13975;SDS011;7062;49.792;9.946;2024-01-06T14:58:30;4.83;;;3.00;;
13975;SDS011;7062;49.792;9.946;2024-01-06T15:00:55;4.93;;;3.67;;
13975;SDS011;7062;49.792;9.946;2024-01-06T15:03:21;5.53;;;4.43;;
13975;SDS011;7062;49.792;9.946;2024-01-06T15:05:48;6.03;;;3.67;;